Time;durP1;ratioP1;P1;durP2;ratioP2;P2;SDS_P1;SDS_P2;PMS_P1;PMS_P2;Temp;Humidity;BMP_temperature;BMP_pressure;BME280_temperature;BME280_humidity;BME280_pressure;Samples;Min_cycle;Max_cycle;Signal;HPM_P1;HPM_P2
2023/04/19 00:01:47;;;;;;;5.05;3.17;;;12.50;64.60;;;;;;2183767;58;21023;-75
2023/04/19 00:04:13;;;;;;;4.60;2.97;;;12.50;64.60;;;;;;2182830;58;20963;-74
2023/04/19 00:06:41;;;;;;;4.93;2.97;;;12.50;64.70;;;;;;2183198;58;21035;-75
2023/04/19 00:09:08;;;;;;;5.03;3.05;;;12.60;65.60;;;;;;2395727;57;21043;-74
2023/04/19 00:11:34;;;;;;;4.75;2.58;;;12.60;64.90;;;;;;2182625;58;20970;-74
2023/04/19 00:14:00;;;;;;;5.00;2.55;;;12.60;65.00;;;;;;2395798;57;21015;-74
2023/04/19 00:16:27;;;;;;;4.05;2.60;;;12.60;65.00;;;;;;2182567;58;20979;-74
2023/04/19 00:18:53;;;;;;;4.03;2.42;;;12.60;65.10;;;;;;2183459;58;20967;-74
2023/04/19 00:21:20;;;;;;;3.87;2.70;;;12.60;65.20;;;;;;2394721;57;20955;-75
2023/04/19 00:23:46;;;;;;;5.15;3.47;;;12.70;65.30;;;;;;2395182;57;21012;-74
2023/04/19 00:26:15;;;;;;;7.25;3.42;;;12.70;65.40;;;;;;2182790;59;20931;-76
2023/04/19 00:28:41;;;;;;;4.30;2.70;;;12.70;65.40;;;;;;2391775;57;21500;-74
2023/04/19 00:31:07;;;;;;;5.93;3.53;;;12.80;65.50;;;;;;2175354;57;21079;-73
2023/04/19 00:33:33;;;;;;;10.20;5.20;;;12.80;65.50;;;;;;2386604;57;20997;-74
2023/04/19 00:36:00;;;;;;;8.00;4.40;;;12.80;65.50;;;;;;2165956;57;20959;-76
2023/04/19 00:38:27;;;;;;;7.57;3.97;;;12.80;65.50;;;;;;2395524;57;21543;-76
2023/04/19 00:40:53;;;;;;;6.72;3.90;;;12.80;65.50;;;;;;2395154;57;21516;-76
2023/04/19 00:43:21;;;;;;;6.03;3.95;;;12.90;65.60;;;;;;2391655;57;20993;-74
2023/04/19 00:45:48;;;;;;;5.60;3.58;;;12.90;65.60;;;;;;2177505;57;21031;-73
2023/04/19 00:48:16;;;;;;;5.18;3.17;;;12.90;65.70;;;;;;2394728;57;21476;-76
2023/04/19 00:50:48;;;;;;;5.18;3.33;;;13.00;65.70;;;;;;2182953;58;21090;-75
2023/04/19 00:53:15;;;;;;;5.85;3.20;;;13.10;65.80;;;;;;2183218;58;21476;-75
2023/04/19 00:55:42;;;;;;;6.68;3.35;;;13.00;65.70;;;;;;2395304;57;21790;-74
2023/04/19 00:58:09;;;;;;;5.43;3.10;;;13.00;65.70;;;;;;2394449;57;20943;-76
2023/04/19 01:00:37;;;;;;;5.28;3.50;;;13.10;65.80;;;;;;2394846;57;20975;-74
2023/04/19 01:03:04;;;;;;;5.18;3.45;;;13.10;65.80;;;;;;2182653;58;22050;-75
2023/04/19 01:05:30;;;;;;;5.85;3.45;;;13.10;65.70;;;;;;2182403;58;21043;-74
2023/04/19 01:07:56;;;;;;;5.80;3.45;;;13.20;66.50;;;;;;2385855;57;20965;-74
2023/04/19 01:10:23;;;;;;;5.93;3.37;;;13.20;65.80;;;;;;2183724;58;21056;-76
2023/04/19 01:12:50;;;;;;;6.25;3.80;;;13.20;65.80;;;;;;2182956;58;20995;-74
2023/04/19 01:15:16;;;;;;;6.65;4.10;;;13.20;65.80;;;;;;2395121;57;21843;-76
2023/04/19 01:17:45;;;;;;;6.15;3.70;;;13.20;65.80;;;;;;2395837;57;20999;-76
2023/04/19 01:20:12;;;;;;;6.80;4.05;;;13.30;65.80;;;;;;2386635;57;20933;-74
2023/04/19 01:22:39;;;;;;;5.65;3.65;;;13.30;65.90;;;;;;2393628;57;20979;-74
2023/04/19 01:25:06;;;;;;;4.70;3.10;;;13.30;65.90;;;;;;2185746;58;20998;-75
2023/04/19 01:27:34;;;;;;;5.37;3.75;;;13.40;66.00;;;;;;2174277;57;20955;-75
2023/04/19 01:30:01;;;;;;;5.20;3.50;;;13.40;65.90;;;;;;2395406;57;21007;-74
2023/04/19 01:32:32;;;;;;;5.55;3.47;;;13.40;65.90;;;;;;2393322;57;21053;-76
2023/04/19 01:35:01;;;;;;;4.68;2.90;;;13.40;65.90;;;;;;2176001;57;20967;-74
2023/04/19 01:37:27;;;;;;;5.10;3.30;;;13.50;65.90;;;;;;2363132;57;20983;-75
2023/04/19 01:39:56;;;;;;;6.12;3.42;;;13.50;65.90;;;;;;2183261;58;20987;-74
2023/04/19 01:42:22;;;;;;;5.35;3.28;;;13.50;65.90;;;;;;2394665;57;21102;-75
2023/04/19 01:44:49;;;;;;;5.78;3.47;;;13.50;65.90;;;;;;2395642;57;21554;-74
2023/04/19 01:47:16;;;;;;;8.02;3.20;;;13.50;65.90;;;;;;2181611;58;20990;-74
2023/04/19 01:49:43;;;;;;;4.20;3.00;;;13.60;65.90;;;;;;2183299;58;21039;-75
2023/04/19 01:52:10;;;;;;;4.70;2.95;;;13.60;65.90;;;;;;2183213;58;20971;-75
2023/04/19 01:54:36;;;;;;;5.53;3.10;;;13.60;65.90;;;;;;2182989;58;21052;-75
2023/04/19 01:57:03;;;;;;;5.25;3.15;;;13.60;65.90;;;;;;2395449;57;20951;-76
2023/04/19 01:59:29;;;;;;;5.80;2.90;;;13.60;65.80;;;;;;2395569;57;21031;-75
2023/04/19 02:01:56;;;;;;;4.87;2.95;;;13.70;65.90;;;;;;2183168;58;21466;-76
2023/04/19 02:04:22;;;;;;;4.85;3.10;;;13.70;65.90;;;;;;2394910;57;22075;-76
2023/04/19 02:06:49;;;;;;;5.15;3.15;;;13.70;65.80;;;;;;2395659;57;21000;-75
2023/04/19 02:09:15;;;;;;;4.00;2.78;;;13.70;65.70;;;;;;2182657;58;21035;-76
2023/04/19 02:11:42;;;;;;;5.18;3.47;;;13.70;65.60;;;;;;2395480;57;20994;-74
2023/04/19 02:14:09;;;;;;;4.90;3.05;;;13.70;65.60;;;;;;2183179;58;20982;-76
2023/04/19 02:16:35;;;;;;;5.97;3.30;;;13.70;65.60;;;;;;2182735;58;21433;-76
2023/04/19 02:19:05;;;;;;;5.70;3.05;;;13.70;65.60;;;;;;2182885;58;21016;-75
2023/04/19 02:21:31;;;;;;;4.85;2.90;;;13.80;65.70;;;;;;2394658;57;21036;-75
2023/04/19 02:23:58;;;;;;;5.30;3.10;;;13.70;65.70;;;;;;2183390;58;20951;-76
2023/04/19 02:26:27;;;;;;;5.32;3.40;;;13.70;65.70;;;;;;2183078;58;21028;-76
2023/04/19 02:28:54;;;;;;;5.57;3.47;;;13.70;65.60;;;;;;2183022;58;20954;-76
2023/04/19 02:31:24;;;;;;;5.65;3.80;;;13.80;65.70;;;;;;2394466;57;21843;-75
2023/04/19 02:33:50;;;;;;;4.72;3.35;;;13.70;65.60;;;;;;2184799;58;21015;-74
2023/04/19 02:36:16;;;;;;;5.87;3.40;;;13.80;65.60;;;;;;2386332;57;21563;-75
2023/04/19 02:38:43;;;;;;;5.87;3.92;;;13.70;65.50;;;;;;2183702;58;21039;-75
2023/04/19 02:41:10;;;;;;;6.35;4.10;;;13.70;65.40;;;;;;2395096;57;20970;-75
2023/04/19 02:43:37;;;;;;;6.00;3.92;;;13.70;65.30;;;;;;2182709;58;21762;-76
2023/04/19 02:46:03;;;;;;;6.25;3.70;;;13.70;65.30;;;;;;2395659;57;20983;-74
2023/04/19 02:48:30;;;;;;;5.93;3.75;;;13.70;65.20;;;;;;2395215;57;20986;-75
2023/04/19 02:50:56;;;;;;;5.95;3.80;;;13.70;65.10;;;;;;2185807;58;20965;-75
2023/04/19 02:53:22;;;;;;;5.07;3.05;;;13.60;64.90;;;;;;2180019;57;21051;-74
2023/04/19 02:55:49;;;;;;;5.30;3.50;;;13.60;64.80;;;;;;2386954;57;21011;-76
2023/04/19 02:58:17;;;;;;;5.05;3.25;;;13.60;64.70;;;;;;2180835;58;20948;-74
2023/04/19 03:00:43;;;;;;;4.20;2.67;;;13.50;64.60;;;;;;2179294;57;21051;-75
2023/04/19 03:03:10;;;;;;;4.82;2.70;;;13.50;64.50;;;;;;2394710;57;20996;-75
2023/04/19 03:05:36;;;;;;;6.12;2.97;;;13.50;64.50;;;;;;2384774;57;21727;-76
2023/04/19 03:08:03;;;;;;;4.12;2.45;;;13.40;64.30;;;;;;2394169;57;21079;-76
2023/04/19 03:10:29;;;;;;;5.30;3.17;;;13.40;64.20;;;;;;2182896;58;21031;-76
2023/04/19 03:12:58;;;;;;;5.20;3.40;;;13.40;64.20;;;;;;2182521;58;20995;-75
2023/04/19 03:15:25;;;;;;;5.12;3.40;;;13.30;64.10;;;;;;2395000;57;21048;-75
2023/04/19 03:17:52;;;;;;;6.05;3.70;;;13.30;64.20;;;;;;2183035;58;21027;-75
2023/04/19 03:20:19;;;;;;;7.20;4.15;;;13.20;63.90;;;;;;2182258;58;21464;-75
2023/04/19 03:22:46;;;;;;;5.82;3.95;;;13.10;63.80;;;;;;2183404;58;21030;-74
2023/04/19 03:25:12;;;;;;;6.12;3.53;;;13.10;63.90;;;;;;2185832;58;21516;-74
2023/04/19 03:27:39;;;;;;;5.60;3.37;;;13.00;63.90;;;;;;2174531;57;21895;-75
2023/04/19 03:30:06;;;;;;;5.00;3.40;;;12.90;63.80;;;;;;2394882;57;20987;-74
2023/04/19 03:32:33;;;;;;;5.05;3.20;;;12.90;63.80;;;;;;2182805;58;20963;-75
2023/04/19 03:35:00;;;;;;;4.12;2.55;;;12.80;63.70;;;;;;2396214;57;21004;-74
2023/04/19 03:37:26;;;;;;;4.72;3.28;;;12.80;63.60;;;;;;2395548;57;20987;-74
2023/04/19 03:39:52;;;;;;;5.30;3.37;;;12.70;63.60;;;;;;2183033;58;21027;-76
2023/04/19 03:42:19;;;;;;;4.70;2.90;;;12.60;63.60;;;;;;2183006;58;20955;-74
2023/04/19 03:44:45;;;;;;;4.78;2.92;;;12.60;63.80;;;;;;2182901;58;20967;-76
2023/04/19 03:47:12;;;;;;;4.15;2.45;;;12.50;63.70;;;;;;2395027;57;21007;-75
2023/04/19 03:49:41;;;;;;;4.95;2.97;;;12.50;63.70;;;;;;2185826;58;20967;-74
2023/04/19 03:52:10;;;;;;;4.53;2.30;;;12.40;63.60;;;;;;2174361;57;20998;-75
2023/04/19 03:54:36;;;;;;;3.75;2.30;;;12.40;63.60;;;;;;2394383;57;21012;-76
2023/04/19 03:57:03;;;;;;;4.62;2.45;;;12.30;63.70;;;;;;2182865;58;21035;-76
2023/04/19 03:59:29;;;;;;;4.40;2.78;;;12.30;63.70;;;;;;2182697;58;20967;-75
2023/04/19 04:01:56;;;;;;;5.85;2.62;;;12.20;63.70;;;;;;2394291;57;20987;-76
2023/04/19 04:04:23;;;;;;;4.70;3.00;;;12.20;63.80;;;;;;2181815;58;21031;-73
2023/04/19 04:06:50;;;;;;;4.30;2.35;;;12.10;63.90;;;;;;2395009;57;20979;-75
2023/04/19 04:09:16;;;;;;;4.00;2.40;;;12.10;64.10;;;;;;2394987;57;21038;-75
2023/04/19 04:11:42;;;;;;;4.28;2.20;;;12.00;64.10;;;;;;2182827;58;21058;-74
2023/04/19 04:14:09;;;;;;;4.60;2.28;;;12.00;64.20;;;;;;2395339;57;20992;-74
2023/04/19 04:16:36;;;;;;;4.18;2.30;;;12.00;64.20;;;;;;2385749;57;21062;-74
2023/04/19 04:19:02;;;;;;;4.03;2.30;;;11.90;64.10;;;;;;2396061;57;21027;-73
2023/04/19 04:21:29;;;;;;;3.45;2.10;;;11.90;64.20;;;;;;2183047;58;20971;-76
2023/04/19 04:23:55;;;;;;;4.18;2.20;;;11.90;64.20;;;;;;2389401;57;21066;-74
2023/04/19 04:26:24;;;;;;;3.90;2.17;;;11.90;64.10;;;;;;2389432;57;21023;-74
2023/04/19 04:28:52;;;;;;;5.07;2.42;;;11.80;64.00;;;;;;2183273;58;21082;-74
2023/04/19 04:31:19;;;;;;;4.25;2.35;;;11.80;64.10;;;;;;2395244;57;21015;-75
2023/04/19 04:33:46;;;;;;;3.58;2.00;;;11.70;64.00;;;;;;2395794;57;21059;-74
2023/04/19 04:36:12;;;;;;;5.00;2.50;;;11.70;64.00;;;;;;2182819;58;21809;-75
2023/04/19 04:38:40;;;;;;;5.32;2.47;;;11.80;64.20;;;;;;2394950;57;21078;-75
2023/04/19 04:41:07;;;;;;;3.90;2.20;;;11.70;64.10;;;;;;2183352;58;20946;-75
2023/04/19 04:43:33;;;;;;;4.68;2.87;;;11.70;64.10;;;;;;2183161;58;20963;-75
2023/04/19 04:46:00;;;;;;;4.97;2.92;;;11.60;64.00;;;;;;2395011;57;20992;-75
2023/04/19 04:48:26;;;;;;;4.00;2.65;;;11.60;64.00;;;;;;2182336;58;21043;-73
2023/04/19 04:50:56;;;;;;;5.30;3.10;;;11.60;64.10;;;;;;2388317;57;21029;-75
2023/04/19 04:53:26;;;;;;;4.50;2.75;;;11.50;63.90;;;;;;2179495;57;21084;-74
2023/04/19 04:55:53;;;;;;;5.60;3.37;;;11.50;64.00;;;;;;2177931;57;20995;-73
2023/04/19 04:58:20;;;;;;;4.97;3.15;;;11.50;64.00;;;;;;2395120;57;21081;-73
2023/04/19 05:00:47;;;;;;;5.80;3.60;;;11.50;64.00;;;;;;2394787;57;21003;-74
2023/04/19 05:03:15;;;;;;;5.10;3.12;;;11.40;63.90;;;;;;2394730;57;21023;-76
2023/04/19 05:05:44;;;;;;;8.52;4.95;;;11.40;64.00;;;;;;2395290;57;20983;-74
2023/04/19 05:08:10;;;;;;;35.33;21.50;;;11.40;64.10;;;;;;2182799;58;20959;-74
2023/04/19 05:10:37;;;;;;;34.83;21.02;;;11.30;64.00;;;;;;2395551;57;21002;-75
2023/04/19 05:13:04;;;;;;;25.50;17.00;;;11.30;64.10;;;;;;2182773;58;21338;-74
2023/04/19 05:15:31;;;;;;;23.00;14.93;;;11.30;64.20;;;;;;2395138;57;20987;-75
2023/04/19 05:17:57;;;;;;;17.48;11.73;;;11.30;64.30;;;;;;2182021;58;21800;-74
2023/04/19 05:20:25;;;;;;;13.35;8.43;;;11.20;64.20;;;;;;2395238;57;21707;-76
2023/04/19 05:22:57;;;;;;;11.07;7.22;;;11.20;64.20;;;;;;2183229;58;20990;-74
2023/04/19 05:25:25;;;;;;;9.23;6.05;;;11.20;64.30;;;;;;2394942;57;20954;-74
2023/04/19 05:27:52;;;;;;;8.48;5.68;;;11.20;64.50;;;;;;2183468;58;20963;-76
2023/04/19 05:30:21;;;;;;;8.75;5.28;;;11.20;64.70;;;;;;2394731;57;20943;-74
2023/04/19 05:32:47;;;;;;;7.55;4.70;;;11.10;64.70;;;;;;2183396;58;21028;-74
2023/04/19 05:35:14;;;;;;;7.80;5.15;;;11.10;64.80;;;;;;2186490;58;21802;-74
2023/04/19 05:37:41;;;;;;;6.57;4.05;;;11.10;64.90;;;;;;2174797;57;20959;-74
2023/04/19 05:40:09;;;;;;;6.30;3.70;;;11.20;65.20;;;;;;2395266;57;20955;-74
2023/04/19 05:42:35;;;;;;;5.87;3.72;;;11.20;65.20;;;;;;2182652;58;21018;-74
2023/04/19 05:45:01;;;;;;;4.95;3.47;;;11.20;65.30;;;;;;2395820;57;21371;-76
2023/04/19 05:47:28;;;;;;;6.37;4.00;;;11.20;65.30;;;;;;2178277;57;20988;-73
2023/04/19 05:49:55;;;;;;;5.85;3.50;;;11.20;65.30;;;;;;2393478;57;20995;-76
2023/04/19 05:52:21;;;;;;;6.53;4.40;;;11.20;65.40;;;;;;2385966;57;21043;-75
2023/04/19 05:54:48;;;;;;;6.12;3.80;;;11.20;65.50;;;;;;2395530;57;21069;-74
2023/04/19 05:57:16;;;;;;;5.28;3.53;;;11.30;65.70;;;;;;2395005;57;21381;-74
2023/04/19 05:59:42;;;;;;;6.12;3.90;;;11.30;65.70;;;;;;2183552;58;21031;-74
2023/04/19 06:02:08;;;;;;;5.70;4.03;;;11.30;65.80;;;;;;2385182;57;21523;-76
2023/04/19 06:04:37;;;;;;;5.85;3.58;;;11.30;65.90;;;;;;2395631;57;21003;-74
2023/04/19 06:07:04;;;;;;;5.87;3.92;;;11.40;66.10;;;;;;2183202;58;20963;-75
2023/04/19 06:09:34;;;;;;;7.03;3.80;;;11.40;66.10;;;;;;2182956;58;21026;-75
2023/04/19 06:12:01;;;;;;;7.78;4.30;;;11.40;66.20;;;;;;2183308;58;20987;-73
2023/04/19 06:14:30;;;;;;;5.30;3.30;;;11.50;66.30;;;;;;2183119;58;20962;-76
2023/04/19 06:16:56;;;;;;;5.87;3.53;;;11.50;66.30;;;;;;2395985;57;20991;-77
2023/04/19 06:19:22;;;;;;;5.22;3.42;;;11.50;66.30;;;;;;2395170;57;20947;-75
2023/04/19 06:21:49;;;;;;;6.50;3.60;;;11.60;66.50;;;;;;2182868;58;20983;-74
2023/04/19 06:24:18;;;;;;;5.80;3.08;;;11.60;66.50;;;;;;2394743;57;21431;-76
2023/04/19 06:26:46;;;;;;;5.47;3.62;;;11.60;66.60;;;;;;2183695;57;21005;-75
2023/04/19 06:29:12;;;;;;;5.00;3.28;;;11.80;66.80;;;;;;2175903;57;21024;-76
2023/04/19 06:31:39;;;;;;;5.70;3.85;;;11.70;66.80;;;;;;2395650;57;21003;-75
2023/04/19 06:34:05;;;;;;;5.70;3.20;;;11.80;66.90;;;;;;2395726;57;21787;-75
2023/04/19 06:36:32;;;;;;;5.00;2.97;;;11.80;67.00;;;;;;2394633;57;21018;-76
2023/04/19 06:38:58;;;;;;;5.43;3.60;;;11.90;67.10;;;;;;2386727;57;21003;-75
2023/04/19 06:41:27;;;;;;;5.82;3.42;;;11.90;67.10;;;;;;2394916;57;20971;-74
2023/04/19 06:43:53;;;;;;;5.28;3.33;;;12.00;67.30;;;;;;2385272;57;21041;-75
2023/04/19 06:46:19;;;;;;;7.05;4.43;;;12.00;67.40;;;;;;2182721;57;21128;-75
2023/04/19 06:48:46;;;;;;;7.57;4.82;;;12.10;67.60;;;;;;2388445;57;21035;-76
2023/04/19 06:51:12;;;;;;;6.65;4.65;;;12.20;67.90;;;;;;2395152;57;20994;-75
2023/04/19 06:53:39;;;;;;;7.85;4.97;;;12.30;68.10;;;;;;2395299;57;21043;-75
2023/04/19 06:56:06;;;;;;;8.25;5.45;;;12.40;68.40;;;;;;2395089;57;21572;-75
2023/04/19 06:58:32;;;;;;;7.50;5.40;;;12.40;68.50;;;;;;2182945;58;21074;-75
2023/04/19 07:01:01;;;;;;;7.80;5.40;;;12.60;68.80;;;;;;2183235;58;21006;-75
2023/04/19 07:03:28;;;;;;;7.78;5.15;;;12.60;68.90;;;;;;2395101;57;21063;-74
2023/04/19 07:05:57;;;;;;;9.30;5.75;;;12.80;69.10;;;;;;2394912;57;20967;-75
2023/04/19 07:08:24;;;;;;;9.73;5.55;;;12.90;69.30;;;;;;2179148;57;20984;-76
2023/04/19 07:10:52;;;;;;;7.72;5.55;;;13.00;69.40;;;;;;2393439;57;21502;-76
2023/04/19 07:13:18;;;;;;;8.00;5.82;;;13.10;69.60;;;;;;2182858;58;21023;-76
2023/04/19 07:15:45;;;;;;;7.70;5.35;;;13.20;69.80;;;;;;2395693;57;21051;-75
2023/04/19 07:18:14;;;;;;;8.55;5.55;;;13.40;70.10;;;;;;2396009;57;20975;-75
2023/04/19 07:20:45;;;;;;;7.97;5.97;;;13.50;70.30;;;;;;2182639;58;21015;-76
2023/04/19 07:23:11;;;;;;;8.57;5.57;;;13.70;70.30;;;;;;2395496;57;20960;-77
2023/04/19 07:25:38;;;;;;;9.02;6.05;;;13.80;70.30;;;;;;2395205;57;21015;-75
2023/04/19 07:28:05;;;;;;;9.68;6.40;;;14.00;70.30;;;;;;2395467;57;21055;-76
2023/04/19 07:30:35;;;;;;;10.23;6.65;;;14.10;70.40;;;;;;2182626;57;21057;-76
2023/04/19 07:33:03;;;;;;;8.60;5.78;;;14.30;70.80;;;;;;2389620;57;21040;-76
2023/04/19 07:35:29;;;;;;;9.18;6.65;;;14.50;71.10;;;;;;2182389;58;20991;-76
2023/04/19 07:37:56;;;;;;;8.88;5.78;;;14.70;71.30;;;;;;2180946;57;21137;-78
2023/04/19 07:40:23;;;;;;;8.10;5.82;;;14.90;71.30;;;;;;2176743;57;21432;-76
2023/04/19 07:42:50;;;;;;;8.38;5.93;;;15.00;71.20;;;;;;2391023;57;21027;-78
2023/04/19 07:45:16;;;;;;;8.55;5.93;;;15.20;71.10;;;;;;2182431;58;21061;-76
2023/04/19 07:47:43;;;;;;;7.37;5.00;;;15.40;71.10;;;;;;2395216;57;20968;-78
2023/04/19 07:50:11;;;;;;;8.13;5.72;;;15.60;71.10;;;;;;2182663;58;21437;-76
2023/04/19 07:52:38;;;;;;;7.65;5.43;;;15.70;70.90;;;;;;2395121;57;21004;-76
2023/04/19 07:55:06;;;;;;;8.38;6.03;;;15.90;70.80;;;;;;2183169;58;21106;-75
2023/04/19 07:57:33;;;;;;;10.00;6.35;;;16.00;70.70;;;;;;2395515;57;21422;-75
2023/04/19 08:00:03;;;;;;;8.55;6.25;;;16.10;70.50;;;;;;2395930;57;21007;-76
2023/04/19 08:02:31;;;;;;;7.78;5.37;;;16.30;70.20;;;;;;2183036;58;21010;-77
2023/04/19 08:04:57;;;;;;;7.40;5.20;;;16.40;70.00;;;;;;2185539;58;20959;-76
2023/04/19 08:07:25;;;;;;;7.10;5.35;;;16.50;69.50;;;;;;2385070;57;21086;-77
2023/04/19 08:09:51;;;;;;;8.52;5.87;;;16.60;69.10;;;;;;2175375;57;20979;-77
2023/04/19 08:12:18;;;;;;;9.10;5.72;;;16.70;68.70;;;;;;2395181;57;21937;-74
2023/04/19 08:14:52;;;;;;;9.25;6.32;;;16.80;68.50;;;;;;2395285;57;20951;-77
2023/04/19 08:17:26;;;;;;;10.13;6.60;;;16.80;68.20;;;;;;2394803;57;21016;-76
2023/04/19 08:19:54;;;;;;;10.63;7.00;;;16.80;67.90;;;;;;2182881;58;21058;-77
2023/04/19 08:22:23;;;;;;;11.75;7.75;;;16.90;67.90;;;;;;2182165;58;20975;-76
2023/04/19 08:24:55;;;;;;;10.25;6.93;;;16.90;67.70;;;;;;2395555;57;20955;-77
2023/04/19 08:27:26;;;;;;;8.23;5.97;;;17.00;67.30;;;;;;2394759;57;21004;-77
2023/04/19 08:29:52;;;;;;;11.57;6.97;;;17.00;67.10;;;;;;2385232;57;21020;-76
2023/04/19 08:32:19;;;;;;;10.40;7.05;;;17.00;67.00;;;;;;2182858;58;21018;-76
2023/04/19 08:34:46;;;;;;;10.73;7.00;;;17.10;66.70;;;;;;2395408;57;20998;-77
2023/04/19 08:37:12;;;;;;;11.52;7.57;;;17.10;67.10;;;;;;2395042;57;20935;-77
2023/04/19 08:39:38;;;;;;;10.23;6.95;;;17.00;66.00;;;;;;2177155;57;20957;-76
2023/04/19 08:42:06;;;;;;;10.93;7.43;;;17.00;65.80;;;;;;2183007;58;20983;-76
2023/04/19 08:44:37;;;;;;;9.88;6.57;;;17.00;65.70;;;;;;2395309;57;21874;-77
2023/04/19 08:47:07;;;;;;;10.30;7.22;;;17.00;65.70;;;;;;2182907;58;21987;-76
2023/04/19 08:49:38;;;;;;;11.40;7.28;;;17.00;65.50;;;;;;2182734;58;20955;-75
2023/04/19 08:52:08;;;;;;;10.25;7.45;;;17.00;65.30;;;;;;2395306;57;20984;-76
2023/04/19 08:54:35;;;;;;;11.00;7.57;;;16.90;65.20;;;;;;2182460;58;21055;-76
2023/04/19 08:57:02;;;;;;;11.93;6.70;;;16.90;65.30;;;;;;2395233;57;21547;-78
2023/04/19 08:59:29;;;;;;;8.82;6.28;;;16.90;65.40;;;;;;2395097;57;21110;-76
2023/04/19 09:01:59;;;;;;;11.45;7.85;;;17.00;65.60;;;;;;2182639;58;20978;-78
2023/04/19 09:04:25;;;;;;;10.68;7.35;;;17.00;65.60;;;;;;2394657;57;21003;-76
2023/04/19 09:07:02;;;;;;;11.57;7.43;;;16.90;65.40;;;;;;2182773;58;21019;-78
2023/04/19 09:09:29;;;;;;;10.48;7.00;;;16.90;65.20;;;;;;2394414;57;21580;-76
2023/04/19 09:11:59;;;;;;;9.85;6.55;;;17.00;65.20;;;;;;2182629;58;21035;-74
2023/04/19 09:14:26;;;;;;;8.82;6.32;;;16.90;65.10;;;;;;2177089;57;21830;-76
2023/04/19 09:16:52;;;;;;;10.27;7.12;;;16.90;65.10;;;;;;2182256;57;21056;-76
2023/04/19 09:19:18;;;;;;;9.98;6.78;;;17.00;65.20;;;;;;2388745;57;21011;-77
2023/04/19 09:21:51;;;;;;;10.25;7.40;;;16.90;65.20;;;;;;2395075;57;21072;-76
2023/04/19 09:24:19;;;;;;;12.27;7.03;;;17.00;65.40;;;;;;2182600;58;21016;-79
2023/04/19 09:26:57;;;;;;;11.32;6.95;;;17.00;65.50;;;;;;2395285;57;21026;-76
2023/04/19 09:29:25;;;;;;;9.05;6.45;;;17.00;64.70;;;;;;2394745;57;21618;-77
2023/04/19 09:31:58;;;;;;;9.80;6.30;;;17.10;65.40;;;;;;2395138;57;21343;-76
2023/04/19 09:34:24;;;;;;;9.00;6.45;;;17.10;65.00;;;;;;2182512;58;21853;-77
2023/04/19 09:36:51;;;;;;;10.07;7.07;;;17.10;65.30;;;;;;2395233;57;21047;-76
2023/04/19 09:39:32;;;;;;;9.02;6.45;;;17.20;65.20;;;;;;2362730;57;21059;-76
2023/04/19 09:41:59;;;;;;;10.35;6.93;;;17.20;64.40;;;;;;2181036;57;20965;-75
2023/04/19 09:44:27;;;;;;;11.52;7.15;;;17.20;65.10;;;;;;2386159;57;21467;-76
2023/04/19 09:46:56;;;;;;;9.48;6.78;;;17.30;65.10;;;;;;2395090;57;20977;-76
2023/04/19 09:49:23;;;;;;;8.98;6.15;;;17.30;65.00;;;;;;2395283;57;21109;-76
2023/04/19 09:51:54;;;;;;;9.35;5.50;;;17.30;65.00;;;;;;2393754;57;20997;-76
2023/04/19 09:54:24;;;;;;;10.05;7.07;;;17.40;65.20;;;;;;2387563;57;20985;-76
2023/04/19 09:56:51;;;;;;;9.43;6.78;;;17.40;65.10;;;;;;2391300;57;20989;-77
2023/04/19 09:59:18;;;;;;;8.55;5.93;;;17.40;64.80;;;;;;2176341;57;20979;-74
2023/04/19 10:01:56;;;;;;;10.13;6.85;;;17.50;64.80;;;;;;2163047;58;1278100;-74
2023/04/19 10:04:22;;;;;;;8.02;5.90;;;17.50;64.50;;;;;;2394776;57;20958;-76
2023/04/19 10:06:55;;;;;;;8.65;6.25;;;17.50;64.40;;;;;;2393407;57;21558;-78
2023/04/19 10:09:33;;;;;;;8.57;6.03;;;17.60;64.30;;;;;;2388155;57;21040;-77
2023/04/19 10:12:03;;;;;;;7.97;5.62;;;17.60;64.20;;;;;;2394791;57;21039;-76
2023/04/19 10:14:39;;;;;;;7.82;5.90;;;17.60;63.80;;;;;;2182801;58;20971;-74
2023/04/19 10:17:06;;;;;;;9.43;6.60;;;17.70;64.10;;;;;;2182617;58;21726;-74
2023/04/19 10:19:36;;;;;;;9.32;6.45;;;17.70;64.00;;;;;;2395054;57;22056;-77
2023/04/19 10:22:04;;;;;;;9.55;6.53;;;17.70;63.90;;;;;;2182594;58;20955;-73
2023/04/19 10:24:30;;;;;;;9.32;6.07;;;17.80;63.80;;;;;;2182884;58;21020;-75
2023/04/19 10:27:12;;;;;;;9.10;5.80;;;17.80;63.80;;;;;;2183422;58;20971;-73
2023/04/19 10:29:55;;;;;;;8.83;5.70;;;17.80;63.10;;;;;;2395717;57;20960;-75
2023/04/19 10:32:25;;;;;;;7.15;5.45;;;17.80;62.90;;;;;;2394875;57;20975;-76
2023/04/19 10:35:03;;;;;;;7.28;4.97;;;17.80;63.80;;;;;;2183401;58;20999;-75
2023/04/19 10:37:30;;;;;;;6.78;5.00;;;17.90;63.60;;;;;;2183741;58;21145;-74
2023/04/19 10:39:58;;;;;;;7.45;5.43;;;17.90;63.80;;;;;;2388137;57;21015;-74
2023/04/19 10:42:28;;;;;;;7.05;4.70;;;17.90;63.80;;;;;;2182588;58;21414;-73
2023/04/19 10:45:32;;;;;;;7.20;5.00;;;17.90;63.80;;;;;;2395224;57;21028;-75
2023/04/19 10:48:01;;;;;;;7.60;4.93;;;18.00;63.00;;;;;;2385045;57;21016;-76
2023/04/19 10:50:27;;;;;;;7.18;4.97;;;18.10;64.10;;;;;;2394934;57;20955;-74
2023/04/19 10:52:54;;;;;;;7.62;5.40;;;18.10;64.00;;;;;;2183223;58;21040;-73
2023/04/19 10:55:23;;;;;;;8.35;5.68;;;18.10;63.80;;;;;;2394949;57;21011;-74
2023/04/19 10:58:05;;;;;;;8.30;5.62;;;18.10;63.50;;;;;;2394831;57;21007;-73
2023/04/19 11:00:37;;;;;;;8.25;5.20;;;18.20;62.40;;;;;;2384625;57;20997;-74
2023/04/19 11:03:41;;;;;;;7.40;4.93;;;18.20;63.20;;;;;;2394840;57;21747;-73
2023/04/19 11:06:25;;;;;;;8.05;5.37;;;18.30;62.30;;;;;;2184709;58;21787;-74
2023/04/19 11:08:53;;;;;;;7.80;5.30;;;18.30;62.40;;;;;;2387391;57;21035;-74
2023/04/19 11:11:24;;;;;;;7.78;5.32;;;18.30;62.80;;;;;;2183079;58;20966;-75
2023/04/19 11:13:55;;;;;;;7.25;5.00;;;18.30;62.60;;;;;;2180904;57;20968;-74
2023/04/19 11:16:21;;;;;;;7.72;5.12;;;18.30;62.40;;;;;;2384661;57;21006;-73
2023/04/19 11:18:54;;;;;;;8.23;5.40;;;18.30;63.40;;;;;;2160132;58;21954;-76
2023/04/19 11:21:22;;;;;;;7.32;5.30;;;18.30;62.80;;;;;;2391598;57;21030;-74
2023/04/19 11:24:04;;;;;;;7.15;4.90;;;18.30;63.50;;;;;;2394505;57;21055;-74
2023/04/19 11:26:31;;;;;;;7.50;5.00;;;18.30;62.80;;;;;;2388004;57;21015;-74
2023/04/19 11:28:57;;;;;;;8.02;5.72;;;18.30;62.80;;;;;;2395555;57;21024;-74
2023/04/19 11:31:24;;;;;;;7.93;5.18;;;18.40;62.70;;;;;;2182092;57;21052;-75
2023/04/19 11:33:50;;;;;;;7.22;5.03;;;18.40;62.60;;;;;;2178730;57;20959;-74
2023/04/19 11:36:20;;;;;;;7.72;5.10;;;18.40;62.40;;;;;;2392231;57;21598;-74
2023/04/19 11:38:49;;;;;;;7.93;5.20;;;18.50;62.10;;;;;;2390584;57;21461;-74
2023/04/19 11:41:16;;;;;;;6.45;4.40;;;18.40;61.80;;;;;;2394894;57;21007;-75
2023/04/19 11:43:44;;;;;;;7.22;4.68;;;18.50;62.00;;;;;;2387744;57;20975;-76
2023/04/19 11:46:10;;;;;;;8.05;5.28;;;18.50;61.80;;;;;;2183083;58;21024;-75
2023/04/19 11:48:38;;;;;;;7.45;4.85;;;18.50;61.60;;;;;;2184497;58;21952;-73
2023/04/19 11:51:05;;;;;;;7.20;4.35;;;18.50;61.60;;;;;;2396885;57;21059;-75
2023/04/19 11:53:32;;;;;;;6.80;4.37;;;18.50;62.30;;;;;;2388730;57;20943;-74
2023/04/19 11:56:06;;;;;;;6.28;4.32;;;18.50;61.50;;;;;;2177790;57;20983;-75
2023/04/19 11:58:42;;;;;;;6.40;4.55;;;18.50;60.90;;;;;;2184315;58;21070;-74
2023/04/19 12:01:13;;;;;;;6.75;4.75;;;18.50;60.90;;;;;;2184132;58;20959;-74
2023/04/19 12:03:53;;;;;;;6.32;4.35;;;18.40;60.90;;;;;;2397826;57;20963;-76
2023/04/19 12:06:38;;;;;;;5.62;4.10;;;18.40;60.30;;;;;;2397151;57;21130;-75
2023/04/19 12:09:06;;;;;;;5.78;3.97;;;18.50;60.10;;;;;;2396872;57;20959;-75
2023/04/19 12:11:45;;;;;;;6.43;4.47;;;18.40;60.90;;;;;;2397077;57;21046;-78
2023/04/19 12:14:13;;;;;;;5.75;4.18;;;18.40;59.90;;;;;;2396728;57;20987;-75
2023/04/19 12:16:40;;;;;;;5.90;4.18;;;18.40;60.60;;;;;;2393739;57;21066;-75
2023/04/19 12:19:19;;;;;;;5.53;3.62;;;18.40;60.60;;;;;;2389591;57;20979;-75
2023/04/19 12:21:45;;;;;;;5.95;3.60;;;18.30;59.80;;;;;;2183973;58;20994;-73
2023/04/19 12:24:14;;;;;;;6.47;3.92;;;18.40;60.90;;;;;;2183806;58;21082;-78
2023/04/19 12:26:59;;;;;;;6.35;4.40;;;18.30;60.60;;;;;;2386494;57;21051;-76
2023/04/19 12:29:32;;;;;;;5.78;4.10;;;18.40;59.80;;;;;;2183530;58;20975;-77
2023/04/19 12:31:59;;;;;;;5.78;3.95;;;18.30;60.90;;;;;;2396571;57;21040;-75
2023/04/19 12:34:25;;;;;;;6.95;4.90;;;18.30;60.90;;;;;;2183119;58;20998;-75
2023/04/19 12:36:51;;;;;;;7.40;4.80;;;18.30;60.90;;;;;;2184291;58;21504;-76
2023/04/19 12:39:27;;;;;;;6.57;4.28;;;18.40;61.00;;;;;;2395762;57;20986;-75
2023/04/19 12:41:54;;;;;;;6.70;4.32;;;18.40;61.10;;;;;;2183893;58;20947;-75
2023/04/19 12:44:21;;;;;;;6.90;4.82;;;18.40;61.00;;;;;;2394594;57;21082;-75
2023/04/19 12:46:47;;;;;;;8.85;5.05;;;18.40;60.90;;;;;;2183564;58;21059;-75
2023/04/19 12:49:17;;;;;;;7.47;4.78;;;18.50;61.00;;;;;;2182890;58;21075;-75
2023/04/19 12:51:46;;;;;;;7.20;5.00;;;18.50;60.90;;;;;;2184025;57;21013;-73